createdAt,value
2022-10-28T00:01:13.990Z,3.40
2022-10-28T00:04:02.775Z,3.30
2022-10-28T00:06:51.624Z,2.93
2022-10-28T00:09:39.367Z,3.20
2022-10-28T00:12:26.752Z,2.90
2022-10-28T00:15:14.033Z,3.83
2022-10-28T00:18:01.684Z,2.90
2022-10-28T00:20:49.233Z,2.80
2022-10-28T00:23:38.517Z,2.90
2022-10-28T00:26:28.790Z,3.43
2022-10-28T00:29:18.695Z,3.53
2022-10-28T00:32:06.595Z,3.47
2022-10-28T00:34:54.158Z,3.47
2022-10-28T00:37:41.486Z,3.57
2022-10-28T00:40:35.176Z,3.33
2022-10-28T00:43:36.604Z,3.50
2022-10-28T00:46:32.210Z,3.13
2022-10-28T00:49:25.213Z,3.30
2022-10-28T00:52:18.336Z,2.83
2022-10-28T00:55:06.900Z,3.30
2022-10-28T00:57:57.983Z,3.37
2022-10-28T01:00:45.616Z,3.60
2022-10-28T01:03:33.371Z,2.90
2022-10-28T01:06:21.533Z,2.40
2022-10-28T01:09:08.761Z,2.90
2022-10-28T01:12:01.913Z,3.50
2022-10-28T01:15:05.965Z,2.90
2022-10-28T01:18:01.693Z,3.30
2022-10-28T01:21:59.028Z,2.63
2022-10-28T01:25:10.626Z,3.20
2022-10-28T01:28:34.607Z,2.73
2022-10-28T01:31:41.328Z,2.83
2022-10-28T01:34:38.329Z,3.10
2022-10-28T01:37:34.703Z,3.00
2022-10-28T01:40:32.313Z,2.50
2022-10-28T01:43:29.626Z,3.00
2022-10-28T01:46:21.836Z,2.87
2022-10-28T01:49:17.383Z,2.50
2022-10-28T01:52:08.602Z,2.80
2022-10-28T01:55:01.827Z,2.73
2022-10-28T01:57:51.016Z,2.70
2022-10-28T02:00:39.010Z,2.97
2022-10-28T02:03:27.057Z,2.93
2022-10-28T02:06:20.441Z,2.67
2022-10-28T02:09:29.455Z,2.80
2022-10-28T02:12:26.817Z,2.40
2022-10-28T02:15:39.554Z,2.93
2022-10-28T02:18:36.346Z,2.77
2022-10-28T02:21:37.690Z,2.70
2022-10-28T02:24:37.649Z,3.17
2022-10-28T02:27:35.332Z,2.43
2022-10-28T02:30:26.447Z,2.77
2022-10-28T02:33:19.789Z,3.00
2022-10-28T02:36:13.456Z,2.93
2022-10-28T02:39:03.646Z,2.73
2022-10-28T02:41:55.689Z,2.17
2022-10-28T02:44:49.979Z,2.40
2022-10-28T02:47:44.038Z,2.47
2022-10-28T02:50:36.740Z,2.63
2022-10-28T02:53:31.342Z,2.20
2022-10-28T02:56:22.800Z,2.40
2022-10-28T02:59:12.757Z,2.73
2022-10-28T03:02:00.943Z,2.20
2022-10-28T03:04:48.887Z,2.47
2022-10-28T03:07:36.816Z,2.77
2022-10-28T03:10:24.861Z,2.43
2022-10-28T03:13:14.223Z,2.47
2022-10-28T03:16:02.402Z,2.67
2022-10-28T03:18:51.496Z,2.20
2022-10-28T03:21:39.486Z,2.37
2022-10-28T03:24:27.538Z,2.57
2022-10-28T03:27:15.876Z,1.80
2022-10-28T03:30:05.584Z,2.23
2022-10-28T03:32:54.415Z,2.30
2022-10-28T03:35:42.800Z,2.37
2022-10-28T03:38:31.012Z,2.13
2022-10-28T03:41:19.223Z,2.50
2022-10-28T03:44:07.860Z,2.40
2022-10-28T03:46:57.606Z,2.40
2022-10-28T03:49:45.710Z,2.23
2022-10-28T03:52:33.715Z,1.97
2022-10-28T03:55:23.818Z,2.50
2022-10-28T03:58:11.581Z,2.67
2022-10-28T04:00:59.615Z,2.90
2022-10-28T04:03:49.257Z,2.30
2022-10-28T04:06:37.572Z,2.33
2022-10-28T04:09:25.683Z,2.50
2022-10-28T04:12:13.489Z,2.60
2022-10-28T04:15:01.231Z,2.63
2022-10-28T04:17:49.282Z,2.83
2022-10-28T04:20:38.545Z,2.67
2022-10-28T04:23:26.534Z,2.10
2022-10-28T04:26:15.499Z,1.97
2022-10-28T04:29:03.468Z,2.17
2022-10-28T04:31:52.371Z,2.20
2022-10-28T04:34:41.209Z,2.00
2022-10-28T04:37:30.581Z,2.10
2022-10-28T04:40:18.822Z,2.07
2022-10-28T04:43:08.611Z,2.10
2022-10-28T04:45:57.838Z,2.67
2022-10-28T04:48:45.658Z,2.33
2022-10-28T04:51:33.453Z,1.90
2022-10-28T04:54:22.506Z,2.53
2022-10-28T04:57:10.190Z,2.53
2022-10-28T04:59:58.159Z,2.33
2022-10-28T05:02:46.288Z,2.20
2022-10-28T05:05:34.260Z,2.10
2022-10-28T05:08:21.932Z,2.57
2022-10-28T05:11:11.564Z,2.90
2022-10-28T05:13:59.905Z,2.40
2022-10-28T05:16:48.286Z,2.40
2022-10-28T05:19:36.195Z,2.60
2022-10-28T05:22:24.243Z,2.50
2022-10-28T05:25:12.258Z,2.73
2022-10-28T05:28:02.119Z,2.67
2022-10-28T05:30:52.078Z,2.90
2022-10-28T05:33:41.085Z,2.47
2022-10-28T05:36:29.241Z,2.40
2022-10-28T05:39:17.074Z,2.10
2022-10-28T05:42:06.001Z,2.40
2022-10-28T05:44:55.209Z,2.00
2022-10-28T05:47:45.398Z,2.43
2022-10-28T05:50:33.376Z,2.23
2022-10-28T05:53:21.233Z,2.10
2022-10-28T05:56:09.965Z,2.40
2022-10-28T05:58:58.089Z,2.20
2022-10-28T06:01:47.350Z,2.20
2022-10-28T06:04:16.714Z,2.43
2022-10-28T06:06:46.407Z,2.90
2022-10-28T06:09:15.804Z,2.50
2022-10-28T06:11:43.985Z,2.83
2022-10-28T06:14:13.530Z,2.90
2022-10-28T06:16:43.484Z,2.33
2022-10-28T06:19:14.722Z,2.40
2022-10-28T06:21:44.912Z,2.53
2022-10-28T06:24:14.585Z,2.60
2022-10-28T06:26:44.137Z,2.17
2022-10-28T06:29:13.861Z,2.33
2022-10-28T06:31:43.825Z,2.23
2022-10-28T06:34:14.643Z,2.07
2022-10-28T06:36:44.207Z,2.47
2022-10-28T06:39:13.832Z,2.50
2022-10-28T06:41:43.609Z,2.50
2022-10-28T06:44:13.245Z,2.30
2022-10-28T06:46:44.266Z,2.10
2022-10-28T06:49:15.128Z,2.20
2022-10-28T06:51:44.582Z,2.60
2022-10-28T06:54:14.036Z,2.33
2022-10-28T06:56:45.358Z,3.43
2022-10-28T06:59:14.988Z,3.60
2022-10-28T07:01:44.807Z,2.60
2022-10-28T07:04:16.202Z,3.13
2022-10-28T07:06:47.573Z,3.50
2022-10-28T07:09:19.445Z,2.97
2022-10-28T07:11:54.940Z,2.37
2022-10-28T07:14:25.028Z,2.97
2022-10-28T07:16:54.549Z,3.20
2022-10-28T07:19:25.635Z,2.10
2022-10-28T07:21:55.117Z,2.70
2022-10-28T07:24:24.693Z,2.33
2022-10-28T07:26:56.977Z,2.40
2022-10-28T07:29:27.348Z,2.60
2022-10-28T07:31:57.152Z,2.00
2022-10-28T07:34:28.223Z,2.37
2022-10-28T07:36:58.428Z,2.20
2022-10-28T07:39:28.270Z,2.63
2022-10-28T07:41:57.976Z,2.40
2022-10-28T07:44:27.511Z,2.03
2022-10-28T07:46:58.196Z,2.30
2022-10-28T07:49:29.518Z,1.97
2022-10-28T07:52:02.254Z,2.30
2022-10-28T07:54:32.021Z,2.00
2022-10-28T07:57:01.429Z,1.53
2022-10-28T07:59:30.926Z,1.80
2022-10-28T08:02:03.191Z,1.90
2022-10-28T08:04:34.394Z,1.77
2022-10-28T08:07:03.872Z,1.60
2022-10-28T08:09:33.710Z,2.20
2022-10-28T08:12:03.133Z,3.00
2022-10-28T08:14:32.660Z,3.13
2022-10-28T08:17:02.664Z,3.57
2022-10-28T08:19:33.583Z,8.50
2022-10-28T08:22:03.633Z,8.13
2022-10-28T08:24:33.072Z,9.40
2022-10-28T08:27:03.556Z,6.90
2022-10-28T08:29:35.796Z,4.83
2022-10-28T08:32:15.100Z,4.33
2022-10-28T08:34:50.263Z,4.10
2022-10-28T08:37:23.335Z,4.13
2022-10-28T08:39:53.071Z,4.23
2022-10-28T08:42:44.906Z,4.03
2022-10-28T08:45:36.018Z,3.80
2022-10-28T08:48:20.850Z,3.03
2022-10-28T08:50:58.702Z,2.80
2022-10-28T08:53:36.226Z,3.03
2022-10-28T08:56:14.686Z,3.00
2022-10-28T09:01:50.444Z,2.37
2022-10-28T09:04:31.079Z,2.87
2022-10-28T09:07:02.508Z,2.40
2022-10-28T09:09:32.354Z,2.53
2022-10-28T09:12:23.547Z,2.97
2022-10-28T09:15:24.990Z,2.10
2022-10-28T09:17:56.779Z,2.47
2022-10-28T09:20:37.754Z,1.97
2022-10-28T09:23:19.704Z,2.17
2022-10-28T09:26:06.081Z,2.00
2022-10-28T09:28:50.986Z,2.07
2022-10-28T09:31:31.983Z,2.10
2022-10-28T09:34:17.684Z,2.70
2022-10-28T09:36:53.252Z,2.67
2022-10-28T09:39:33.230Z,2.90
2022-10-28T09:42:05.239Z,2.70
2022-10-28T09:44:43.298Z,2.30
2022-10-28T09:47:20.146Z,2.80
2022-10-28T09:49:51.203Z,2.30
2022-10-28T09:52:26.020Z,2.00
2022-10-28T09:54:57.955Z,2.33
2022-10-28T09:57:33.600Z,2.60
2022-10-28T10:00:02.749Z,2.60
2022-10-28T10:02:40.494Z,2.23
2022-10-28T10:05:17.088Z,2.40
2022-10-28T10:07:52.740Z,2.43
2022-10-28T10:10:27.028Z,2.00
2022-10-28T10:13:00.575Z,2.30
2022-10-28T10:15:34.292Z,2.67
2022-10-28T10:18:06.555Z,2.47
2022-10-28T10:20:50.440Z,2.95
2022-10-28T10:23:30.938Z,2.78
2022-10-28T10:26:08.041Z,2.70
2022-10-28T10:28:45.585Z,2.83
2022-10-28T10:31:21.739Z,2.78
2022-10-28T10:33:54.078Z,2.70
2022-10-28T10:36:28.375Z,2.88
2022-10-28T10:38:59.394Z,2.53
2022-10-28T10:41:37.487Z,2.60
2022-10-28T10:44:32.015Z,1.98
2022-10-28T10:47:22.689Z,1.90
2022-10-28T10:49:55.011Z,1.90
2022-10-28T10:52:26.204Z,1.67
2022-10-28T10:55:02.642Z,1.70
2022-10-28T10:57:34.852Z,1.60
2022-10-28T11:00:05.309Z,1.63
2022-10-28T11:02:39.781Z,2.00
2022-10-28T11:05:11.791Z,1.58
2022-10-28T11:07:48.244Z,1.60
2022-10-28T11:10:25.063Z,1.67
2022-10-28T11:12:57.808Z,1.83
2022-10-28T11:15:29.783Z,1.67
2022-10-28T11:18:02.071Z,2.22
2022-10-28T11:20:44.983Z,1.73
2022-10-28T11:23:39.737Z,1.73
2022-10-28T11:26:14.458Z,1.58
2022-10-28T11:29:08.606Z,1.42
2022-10-28T11:32:20.585Z,1.67
2022-10-28T11:35:10.229Z,1.38
2022-10-28T11:37:53.067Z,1.45
2022-10-28T11:40:32.345Z,1.75
2022-10-28T11:43:19.874Z,1.70
2022-10-28T11:46:01.178Z,1.33
2022-10-28T11:48:47.778Z,1.48
2022-10-28T11:51:33.829Z,1.35
2022-10-28T11:54:27.083Z,1.77
2022-10-28T11:57:02.754Z,1.30
2022-10-28T12:00:03.383Z,1.70
2022-10-28T12:03:02.534Z,1.45
2022-10-28T12:05:38.155Z,1.20
2022-10-28T12:08:24.118Z,1.10
2022-10-28T12:11:08.830Z,1.52
2022-10-28T12:13:47.039Z,1.17
2022-10-28T12:16:23.334Z,1.67
2022-10-28T12:18:58.734Z,1.58
2022-10-28T12:24:14.420Z,1.27
2022-10-28T12:26:48.471Z,1.38
2022-10-28T12:29:22.900Z,1.30
2022-10-28T12:31:57.753Z,1.83
2022-10-28T12:37:13.375Z,1.65
2022-10-28T12:39:52.072Z,1.45
2022-10-28T12:42:26.284Z,1.55
2022-10-28T12:44:59.502Z,1.65
2022-10-28T12:47:39.183Z,1.70
2022-10-28T12:50:21.985Z,1.70
2022-10-28T12:53:15.430Z,1.63
2022-10-28T12:55:51.749Z,1.70
2022-10-28T12:58:26.712Z,1.65
2022-10-28T13:01:01.271Z,1.90
2022-10-28T13:03:30.514Z,1.55
2022-10-28T13:06:32.484Z,1.38
2022-10-28T13:09:42.731Z,1.88
2022-10-28T13:12:48.134Z,1.65
2022-10-28T13:15:50.779Z,1.42
2022-10-28T13:19:02.822Z,1.45
2022-10-28T13:22:15.801Z,1.50
2022-10-28T13:24:57.274Z,1.50
2022-10-28T13:27:27.165Z,1.90
2022-10-28T13:29:58.796Z,1.90
2022-10-28T13:32:38.326Z,1.50
2022-10-28T13:35:21.964Z,1.70
2022-10-28T13:37:55.842Z,1.55
2022-10-28T13:41:11.071Z,1.80
2022-10-28T13:44:24.844Z,1.30
2022-10-28T13:47:28.982Z,1.20
2022-10-28T13:50:37.376Z,1.50
2022-10-28T13:53:53.262Z,1.77
2022-10-28T13:56:49.480Z,1.70
2022-10-28T13:59:29.370Z,1.77
2022-10-28T14:02:32.337Z,1.58
2022-10-28T14:05:02.081Z,1.10
2022-10-28T14:07:33.871Z,1.52
2022-10-28T14:10:23.533Z,1.60
2022-10-28T14:12:57.869Z,1.65
2022-10-28T14:15:31.031Z,1.60
2022-10-28T14:18:16.141Z,1.65
2022-10-28T14:21:01.800Z,1.83
2022-10-28T14:24:31.575Z,1.50
2022-10-28T14:27:41.372Z,1.77
2022-10-28T14:30:21.713Z,1.60
2022-10-28T14:33:26.939Z,1.23
2022-10-28T14:36:23.488Z,2.00
2022-10-28T14:39:28.657Z,1.80
2022-10-28T14:42:28.358Z,1.88
2022-10-28T14:45:20.344Z,1.48
2022-10-28T14:48:14.230Z,1.90
2022-10-28T14:50:47.314Z,1.50
2022-10-28T14:53:25.736Z,1.48
2022-10-28T14:56:02.215Z,2.10
2022-10-28T14:58:36.646Z,1.90
2022-10-28T15:01:24.944Z,1.85
2022-10-28T15:03:59.328Z,2.15
2022-10-28T15:06:39.191Z,1.70
2022-10-28T15:09:19.576Z,1.48
2022-10-28T15:11:52.839Z,1.75
2022-10-28T15:14:32.019Z,1.85
2022-10-28T15:17:13.255Z,1.80
2022-10-28T15:19:44.080Z,1.70
2022-10-28T15:22:21.517Z,1.85
2022-10-28T15:25:00.880Z,1.50
2022-10-28T15:27:33.704Z,1.20
2022-10-28T15:30:05.333Z,2.10
2022-10-28T15:32:37.099Z,1.70
2022-10-28T15:35:41.379Z,2.47
2022-10-28T15:38:34.889Z,1.75
2022-10-28T15:41:04.161Z,1.98
2022-10-28T15:43:33.369Z,2.08
2022-10-28T15:46:12.468Z,2.15
2022-10-28T15:48:43.531Z,1.80
2022-10-28T15:51:15.019Z,1.83
2022-10-28T15:53:44.883Z,2.08
2022-10-28T15:56:23.621Z,2.25
2022-10-28T15:59:18.821Z,2.55
2022-10-28T16:01:48.201Z,2.00
2022-10-28T16:04:45.207Z,2.47
2022-10-28T16:07:14.447Z,1.50
2022-10-28T16:09:47.577Z,1.90
2022-10-28T16:12:20.324Z,1.70
2022-10-28T16:14:55.227Z,1.63
2022-10-28T16:17:27.162Z,1.60
2022-10-28T16:20:00.778Z,1.75
2022-10-28T16:22:31.762Z,2.40
2022-10-28T16:25:00.785Z,2.40
2022-10-28T16:27:33.026Z,2.50
2022-10-28T16:30:02.052Z,3.00
2022-10-28T16:32:38.768Z,2.33
2022-10-28T16:35:16.728Z,2.40
2022-10-28T16:37:49.473Z,2.03
2022-10-28T16:43:17.589Z,2.70
2022-10-28T16:45:46.831Z,2.92
2022-10-28T16:48:17.282Z,2.47
2022-10-28T16:50:51.916Z,2.17
2022-10-28T16:53:21.494Z,2.30
2022-10-28T16:55:50.764Z,2.03
2022-10-28T16:58:23.128Z,2.40
2022-10-28T17:00:55.889Z,2.03
2022-10-28T17:03:24.984Z,2.25
2022-10-28T17:05:55.420Z,2.67
2022-10-28T17:08:49.049Z,2.60
2022-10-28T17:11:16.248Z,2.80
2022-10-28T17:13:45.305Z,3.55
2022-10-28T17:16:14.356Z,3.33
2022-10-28T17:18:43.658Z,3.00
2022-10-28T17:21:14.023Z,3.00
2022-10-28T17:23:43.128Z,2.80
2022-10-28T17:26:12.305Z,3.42
2022-10-28T17:28:41.385Z,2.95
2022-10-28T17:31:10.786Z,3.00
2022-10-28T17:33:39.807Z,2.85
2022-10-28T17:36:10.472Z,2.70
2022-10-28T17:38:40.891Z,3.27
2022-10-28T17:41:10.818Z,2.80
2022-10-28T17:43:39.959Z,3.08
2022-10-28T17:46:09.940Z,3.67
2022-10-28T17:48:40.616Z,2.65
2022-10-28T17:51:10.656Z,2.95
2022-10-28T17:53:41.944Z,3.17
2022-10-28T17:56:11.974Z,2.97
2022-10-28T17:58:41.764Z,3.00
2022-10-28T18:01:12.977Z,2.83
2022-10-28T18:03:42.786Z,2.97
2022-10-28T18:06:14.190Z,3.00
2022-10-28T18:08:46.004Z,3.23
2022-10-28T18:11:17.700Z,3.10
2022-10-28T18:13:51.458Z,2.83
2022-10-28T18:16:24.174Z,3.10
2022-10-28T18:18:54.260Z,3.97
2022-10-28T18:21:25.561Z,2.60
2022-10-28T18:24:03.821Z,2.93
2022-10-28T18:26:34.967Z,2.77
2022-10-28T18:29:05.900Z,3.13
2022-10-28T18:31:36.068Z,2.83
2022-10-28T18:34:06.624Z,3.07
2022-10-28T18:36:37.211Z,2.20
2022-10-28T18:39:09.740Z,2.90
2022-10-28T18:41:42.657Z,3.20
2022-10-28T18:44:17.168Z,3.13
2022-10-28T18:46:46.735Z,3.20
2022-10-28T18:49:16.179Z,3.57
2022-10-28T18:51:45.798Z,3.50
2022-10-28T18:54:16.898Z,3.30
2022-10-28T18:56:48.001Z,3.77
2022-10-28T18:59:18.086Z,4.70
2022-10-28T19:01:51.015Z,4.63
2022-10-28T19:04:20.477Z,5.80
2022-10-28T19:06:49.868Z,5.73
2022-10-28T19:09:20.638Z,4.87
2022-10-28T19:11:49.860Z,4.50
2022-10-28T19:14:19.222Z,4.67
2022-10-28T19:16:48.712Z,4.60
2022-10-28T19:19:17.912Z,3.77
2022-10-28T19:21:47.235Z,4.90
2022-10-28T19:24:16.557Z,4.30
2022-10-28T19:26:47.228Z,4.10
2022-10-28T19:29:16.463Z,4.00
2022-10-28T19:31:45.772Z,4.37
2022-10-28T19:34:15.420Z,3.30
2022-10-28T19:36:44.650Z,2.93
2022-10-28T19:39:13.882Z,3.10
2022-10-28T19:41:43.483Z,4.23
2022-10-28T19:44:14.575Z,4.10
2022-10-28T19:46:43.866Z,4.07
2022-10-28T19:49:13.327Z,4.67
2022-10-28T19:51:43.107Z,4.03
2022-10-28T19:54:15.118Z,4.30
2022-10-28T19:56:45.315Z,4.60
2022-10-28T19:59:16.940Z,4.30
2022-10-28T20:01:46.645Z,4.17
2022-10-28T20:04:34.583Z,4.53
2022-10-28T20:07:23.515Z,3.40
2022-10-28T20:10:11.255Z,3.27
2022-10-28T20:12:58.801Z,3.87
2022-10-28T20:15:47.940Z,3.03
2022-10-28T20:18:36.216Z,2.90
2022-10-28T20:21:27.232Z,3.13
2022-10-28T20:24:15.717Z,3.00
2022-10-28T20:27:03.311Z,3.20
2022-10-28T20:29:51.366Z,2.83
2022-10-28T20:32:40.516Z,2.50
2022-10-28T20:35:29.416Z,3.30
2022-10-28T20:38:18.896Z,3.30
2022-10-28T20:41:08.721Z,2.87
2022-10-28T20:43:57.292Z,3.50
2022-10-28T20:46:48.036Z,3.70
2022-10-28T20:49:42.791Z,3.17
2022-10-28T20:52:30.896Z,3.70
2022-10-28T20:55:18.895Z,3.30
2022-10-28T20:58:06.596Z,3.30
2022-10-28T21:03:44.746Z,4.60
2022-10-28T21:06:33.773Z,3.83
2022-10-28T21:09:21.097Z,3.50
2022-10-28T21:12:08.668Z,3.40
2022-10-28T21:14:56.328Z,3.60
2022-10-28T21:17:44.165Z,4.23
2022-10-28T21:20:31.722Z,4.23
2022-10-28T21:23:20.705Z,4.20
2022-10-28T21:26:11.160Z,3.93
2022-10-28T21:28:58.355Z,3.57
2022-10-28T21:31:45.687Z,4.00
2022-10-28T21:34:33.028Z,3.63
2022-10-28T21:37:21.154Z,3.97
2022-10-28T21:40:12.528Z,4.10
2022-10-28T21:42:59.993Z,3.70
2022-10-28T21:45:47.256Z,4.63
2022-10-28T21:48:36.667Z,3.87
2022-10-28T21:51:24.317Z,3.97
2022-10-28T21:54:11.504Z,4.60
2022-10-28T21:57:00.134Z,4.30
2022-10-28T21:59:49.575Z,3.67
2022-10-28T22:02:37.011Z,3.73
2022-10-28T22:05:24.685Z,3.33
2022-10-28T22:08:12.218Z,3.77
2022-10-28T22:11:01.946Z,3.87
2022-10-28T22:13:57.534Z,3.70
2022-10-28T22:16:45.138Z,3.37
2022-10-28T22:19:32.380Z,4.00
2022-10-28T22:22:19.740Z,3.97
2022-10-28T22:25:10.423Z,4.03
2022-10-28T22:27:58.295Z,3.90
2022-10-28T22:30:47.062Z,3.77
2022-10-28T22:33:35.004Z,4.17
2022-10-28T22:36:27.353Z,4.40
2022-10-28T22:39:14.861Z,4.20
2022-10-28T22:42:02.870Z,4.10
2022-10-28T22:44:50.258Z,3.53
2022-10-28T22:47:38.854Z,4.40
2022-10-28T22:50:26.543Z,4.00
2022-10-28T22:53:13.784Z,4.27
2022-10-28T22:56:01.266Z,4.57
2022-10-28T22:58:49.312Z,3.70
2022-10-28T23:01:36.747Z,3.87
2022-10-28T23:04:25.848Z,4.07
2022-10-28T23:07:13.475Z,3.90
2022-10-28T23:10:00.767Z,3.80
2022-10-28T23:12:48.148Z,4.17
2022-10-28T23:15:35.608Z,4.13
2022-10-28T23:18:27.358Z,3.90
2022-10-28T23:21:19.089Z,3.60
2022-10-28T23:24:07.622Z,3.97
2022-10-28T23:26:55.259Z,4.07
2022-10-28T23:29:42.613Z,3.60
2022-10-28T23:32:31.399Z,3.17
2022-10-28T23:35:18.913Z,3.63
2022-10-28T23:38:09.101Z,3.93
2022-10-28T23:40:58.611Z,3.80
2022-10-28T23:43:46.518Z,3.13
2022-10-28T23:46:37.375Z,3.33
2022-10-28T23:49:25.031Z,3.83
2022-10-28T23:52:12.423Z,3.60
2022-10-28T23:55:01.019Z,3.27
2022-10-28T23:57:48.556Z,3.57
